Date,TemperatureHighF,TemperatureAvgF,TemperatureLowF,DewpointHighF,DewpointAvgF,DewpointLowF,HumidityHigh,HumidityAvg,HumidityLow,PressureMaxIn,PressureMinIn,WindSpeedMaxMPH,WindSpeedAvgMPH,GustSpeedMaxMPH,PrecipitationSumIn
2013-1-1,37,27,17,21,14,11,86,60,40,30.43,30.15,6,1,11,0.00
2013-1-2,37,24,15,13,9,5,78,55,27,30.50,30.34,6,1,7,0.00
2013-1-3,38,25,15,15,10,5,84,56,36,30.60,30.45,6,1,8,0.00
2013-1-4,36,23,11,27,5,-1,86,47,27,30.60,30.41,6,1,9,0.00
2013-1-5,44,28,12,11,6,2,72,42,20,30.63,30.48,3,0,6,0.00
2013-1-6,44,28,14,13,8,4,65,44,23,30.61,30.30,4,1,6,0.00
2013-1-7,52,37,28,27,14,8,66,40,25,30.30,30.01,4,0,6,0.00
2013-1-8,50,35,24,21,14,10,66,44,20,30.35,30.04,7,2,13,0.00
2013-1-9,54,37,22,17,14,11,64,42,21,30.55,30.23,4,1,9,0.00
2013-1-10,47,35,22,22,14,10,60,42,27,30.23,29.81,3,1,9,0.00
2013-1-11,43,34,19,25,6,-10,62,33,14,29.99,29.67,12,3,15,0.00
2013-1-12,33,22,10,3,-4,-13,53,34,18,30.25,29.99,5,1,11,0.00
2013-1-13,33,20,6,5,-2,-7,57,39,24,30.38,30.21,5,1,7,0.00
2013-1-14,29,21,15,21,10,-1,85,63,43,30.36,30.17,6,1,11,0.00
2013-1-15,26,17,9,13,1,-2,74,52,32,30.70,30.36,8,2,12,0.00
2013-1-16,41,25,8,14,7,0,69,48,31,30.78,30.59,5,0,7,0.00
2013-1-17,53,31,17,18,13,9,72,51,23,30.78,30.57,4,0,6,0.00
2013-1-18,54,36,21,21,17,14,74,50,24,30.57,30.34,4,1,6,0.00
2013-1-19,55,37,23,22,18,15,72,48,20,30.49,30.34,4,0,7,0.00
2013-1-20,56,37,19,20,14,10,76,45,18,30.45,30.26,7,1,9,0.00
2013-1-21,57,38,21,21,13,9,87,40,17,30.44,30.25,5,1,10,0.00
2013-1-22,61,41,24,18,15,8,69,39,14,30.43,30.26,3,0,9,0.00
2013-1-23,62,42,26,16,12,7,61,33,12,30.47,30.31,3,0,7,0.00
2013-1-24,65,45,27,34,16,9,60,35,15,30.39,30.18,7,1,8,0.00
2013-1-25,60,49,38,39,35,29,74,58,46,30.26,30.08,3,0,4,0.00
2013-1-26,56,48,41,49,40,34,88,74,59,30.10,29.80,5,1,14,0.13
2013-1-27,62,50,40,40,37,33,85,64,34,29.94,29.80,13,2,14,0.00
2013-1-28,57,45,38,38,32,18,87,61,34,29.84,29.63,11,3,19,0.00
2013-1-29,37,32,27,24,14,3,74,47,25,30.09,29.69,13,4,24,0.00
2013-1-30,43,33,23,18,13,7,66,47,27,30.36,30.09,9,2,20,0.00
2013-1-31,54,38,24,24,19,16,77,50,23,30.45,30.30,7,1,16,0.00
2013-2-1,59,42,25,24,20,15,78,46,22,30.35,30.20,8,1,16,0.00
2013-2-2,59,44,31,23,21,18,66,42,21,30.42,30.27,3,1,8,0.00
2013-2-3,53,42,30,29,21,16,62,45,23,30.32,30.00,5,0,8,0.00
2013-2-4,61,46,34,29,25,18,76,47,21,30.12,29.95,6,1,9,0.00
2013-2-5,62,46,31,24,20,15,64,38,16,30.10,29.94,7,1,9,0.00
2013-2-6,63,45,27,27,21,15,64,40,24,29.99,29.81,7,1,10,0.00
2013-2-7,59,46,34,27,22,13,67,41,17,30.12,29.98,6,1,10,0.00
2013-2-8,59,46,34,24,21,18,57,38,25,30.07,29.70,13,2,20,0.00
2013-2-9,49,38,30,23,15,4,59,40,20,29.87,29.57,20,3,24,0.00
2013-2-10,46,36,27,23,14,9,71,44,23,30.04,29.88,8,2,14,0.00
2013-2-11,48,34,21,24,17,2,83,54,15,30.12,29.97,9,2,16,0.00
2013-2-12,43,33,24,22,12,5,70,45,21,30.29,30.03,10,3,16,0.00
2013-2-13,50,36,18,28,13,7,78,41,24,30.31,30.13,11,2,17,0.00
2013-2-14,54,41,27,20,17,15,69,40,21,30.24,30.08,9,2,17,0.00
2013-2-15,53,41,27,23,14,-1,82,39,11,30.41,30.23,16,2,21,0.00
2013-2-16,61,42,24,15,8,-2,55,27,9,30.49,30.16,5,1,8,0.00
2013-2-17,63,44,23,12,4,-4,45,22,7,30.17,29.70,10,2,12,0.00
2013-2-18,54,43,34,17,-4,-34,45,18,2,30.07,29.80,9,2,15,0.00
2013-2-19,62,43,25,35,6,-12,66,26,8,30.10,29.72,13,3,24,0.00
2013-2-20,52,44,34,35,28,13,75,57,23,29.73,29.41,9,2,17,0.00
2013-2-21,48,37,29,27,23,19,91,61,35,29.95,29.51,12,2,14,0.13
2013-2-22,46,36,28,23,20,13,73,56,27,30.12,29.93,11,2,17,0.00
2013-2-23,50,36,20,18,13,8,77,42,21,30.19,29.77,9,1,11,0.00
2013-2-24,42,35,28,25,15,3,86,47,23,29.96,29.67,12,3,20,0.00
2013-2-25,32,29,26,25,18,14,81,64,49,30.18,29.96,5,1,12,0.00
2013-4-3,68,57,65,21,2,-100,17,14,15,29.88,0.00,8,-140,11,0.00
2013-4-26,79,69,60,30,10,-3,32,13,4,29.91,29.82,4,1,11,0.00
2013-4-27,80,64,46,30,14,-16,47,22,2,30.02,29.80,6,1,9,0.00
2013-4-28,84,66,45,17,5,-15,30,12,2,29.89,29.61,6,1,10,0.00
2013-4-29,89,70,48,22,14,7,31,13,5,29.71,29.43,8,1,13,0.00
2013-4-30,88,73,56,29,14,1,33,12,4,29.56,29.37,7,2,20,0.00
2013-5-1,86,72,52,28,11,-15,41,11,4,29.87,29.49,11,2,16,0.00
2013-5-2,64,51,39,29,18,10,55,29,13,30.28,29.89,20,4,22,0.00
2013-5-3,70,53,35,17,13,8,41,23,9,30.30,29.87,7,2,14,0.00
2013-5-4,81,62,42,20,10,1,36,15,5,29.89,29.64,16,3,23,0.00
2013-5-5,76,63,51,32,19,8,26,19,12,29.91,29.73,17,6,34,0.00
2013-5-6,73,64,55,41,27,15,52,25,17,29.79,29.70,10,2,18,0.00
2013-5-7,79,65,49,35,30,22,52,29,13,29.82,29.60,8,2,19,0.00
2013-5-8,74,63,50,36,26,13,58,29,10,29.79,29.67,8,1,12,0.00
2013-5-9,76,63,49,36,26,20,41,26,13,29.88,29.72,7,1,17,0.00
2013-5-10,73,60,50,42,37,34,64,44,24,30.09,29.85,10,2,17,0.00
2013-5-11,74,60,47,44,38,29,82,48,19,30.15,30.06,14,2,20,0.00
2013-5-12,82,65,46,37,33,27,62,35,13,30.16,29.89,7,1,12,0.00
2013-5-13,87,70,51,35,30,26,51,26,11,30.04,29.80,6,1,9,0.00
2013-5-14,89,72,56,51,30,18,65,24,9,29.85,29.56,4,1,14,0.08
2013-5-15,91,74,63,47,38,21,57,31,10,29.68,29.48,5,1,13,0.00
2013-5-16,90,76,58,31,18,3,30,13,4,29.70,29.48,11,2,19,0.00
2013-5-17,90,75,57,33,20,8,34,14,6,29.69,29.47,10,2,25,0.00
2013-5-18,80,71,57,31,21,8,31,16,9,29.67,29.46,9,2,13,0.00
2013-5-19,77,67,59,36,30,20,42,28,13,29.66,29.55,10,3,17,0.00
2013-5-20,79,65,52,36,28,2,53,29,5,29.73,29.56,10,2,20,0.00
2013-5-21,85,67,50,35,30,18,55,29,9,29.82,29.58,5,1,15,0.00
2013-5-22,90,74,54,33,20,6,43,17,5,29.67,29.45,10,2,13,0.00
2013-5-23,94,78,58,49,19,-2,40,13,4,29.65,29.43,10,2,23,0.00
2013-5-24,92,77,64,51,33,16,58,25,8,29.72,29.51,9,2,17,0.00
2013-5-25,94,77,57,41,22,0,35,15,3,29.75,29.48,7,1,16,0.00
2013-5-26,92,77,58,31,12,-12,31,11,2,29.71,29.48,8,1,16,0.00
2013-5-27,88,73,58,31,12,-3,32,11,3,29.67,29.48,8,1,14,0.00
2013-5-28,88,74,56,28,14,-6,30,13,3,29.55,29.27,9,1,13,0.00
2013-5-29,84,73,62,37,22,4,38,17,5,29.43,29.28,9,2,19,0.00
2013-5-30,91,75,56,30,22,15,32,15,7,29.59,29.42,11,2,17,0.00
2013-5-31,89,78,64,40,25,-2,36,17,5,29.61,29.47,12,3,18,0.00
2013-6-1,70,64,60,19,8,2,20,11,7,29.66,29.63,3,1,10,0.00
2013-6-5,94,83,71,40,31,14,31,18,6,29.57,29.43,9,2,15,0.00
2013-6-6,93,75,58,46,40,26,56,31,11,29.70,29.52,13,2,24,0.00
2013-6-7,94,76,59,52,44,27,70,37,10,29.70,29.42,16,3,25,0.00
2013-6-8,99,80,59,48,36,20,62,27,6,29.57,29.36,12,2,17,0.00
2013-6-9,101,85,70,48,43,33,44,26,11,29.62,29.46,16,3,22,0.00
2013-6-10,104,88,73,50,38,19,42,21,5,29.61,29.41,9,2,24,0.00
2013-6-11,105,88,69,37,22,-4,28,11,2,29.62,29.42,6,1,14,0.00
2013-6-12,104,84,65,34,23,11,30,12,4,29.68,29.53,5,1,9,0.00
2013-6-13,83,81,77,54,44,38,44,27,21,29.59,29.55,7,3,20,0.06
2013-6-14,96,81,71,56,50,44,55,36,17,29.59,29.42,17,3,26,0.00
2013-6-15,98,80,62,54,43,29,67,33,10,29.72,29.56,15,2,31,0.00
2013-6-16,97,81,67,49,42,35,46,26,12,29.72,29.57,8,1,16,0.00
2013-6-17,97,81,64,49,41,34,52,27,11,29.75,29.51,14,2,29,0.00
2013-6-18,94,80,66,54,48,38,60,36,15,29.73,29.46,18,5,33,0.00
2013-6-19,100,84,62,50,24,-18,50,19,1,29.58,29.34,11,2,20,0.00
2013-6-20,100,82,61,39,3,-100,42,12,1,29.61,29.39,7,1,13,0.00
2013-6-21,99,82,65,46,19,-20,39,13,1,29.65,29.43,10,1,11,0.00
2013-6-22,97,82,62,31,13,-6,27,10,2,29.63,29.42,7,1,17,0.00
2013-6-23,97,81,62,28,13,1,27,9,3,29.62,29.39,8,1,12,0.00
2013-6-24,98,84,68,32,14,-10,23,9,2,29.60,29.42,7,1,11,0.00
2013-6-25,99,83,64,30,20,10,25,11,4,29.67,29.50,6,1,12,0.00
2013-6-26,103,85,67,37,26,18,28,13,5,29.73,29.55,5,1,9,0.00
2013-6-27,110,89,66,38,30,11,34,15,3,29.72,29.53,4,1,11,0.00
2013-6-28,101,87,77,51,44,33,38,23,12,29.72,29.58,19,3,26,0.00
2013-6-29,103,84,68,50,46,35,52,30,11,29.74,29.53,16,2,22,0.00
2013-6-30,103,82,70,54,47,36,46,31,10,29.77,29.47,13,2,26,0.01
2013-7-1,93,75,63,56,52,47,76,48,20,29.85,29.66,16,4,26,0.02
2013-7-2,92,75,64,55,49,44,60,42,20,29.90,29.64,14,2,22,0.00
2013-7-3,91,74,61,58,52,45,79,51,24,29.82,29.53,10,2,16,0.02
2013-7-4,96,80,63,57,52,45,75,42,18,29.66,29.48,13,2,18,0.00
2013-7-5,98,79,67,66,56,50,90,48,20,29.61,29.38,8,2,21,0.69
2013-7-6,98,77,66,65,58,46,89,58,17,29.67,29.48,9,1,16,0.11
2013-7-7,99,82,66,61,56,45,81,47,16,29.67,29.50,7,1,15,0.03
2013-7-8,98,81,68,64,56,52,85,45,22,29.77,29.57,12,2,21,0.23
2013-7-9,98,81,67,63,58,51,84,50,22,29.80,29.63,7,1,17,0.00
2013-7-10,99,85,71,58,55,50,62,38,20,29.74,29.55,9,2,17,0.00
2013-7-11,92,79,70,62,58,52,73,50,28,29.76,29.55,7,2,16,0.00
2013-7-12,95,81,69,61,57,50,70,47,23,29.70,29.53,11,2,19,0.00
2013-7-13,99,82,67,64,57,46,81,46,18,29.71,29.55,12,2,17,0.22
2013-7-14,101,81,67,64,57,49,89,48,19,29.71,29.43,18,2,26,0.15
2013-7-15,75,69,66,63,57,50,88,67,48,29.86,29.63,16,4,23,0.00
2013-7-16,86,72,63,54,50,48,68,47,27,29.91,29.77,17,3,22,0.00
2013-7-17,84,72,61,57,52,48,85,53,31,30.00,29.85,15,4,18,0.04
2013-7-18,88,75,63,56,54,52,73,50,32,29.95,29.71,9,2,15,0.00
2013-7-19,91,75,67,64,60,56,83,61,33,29.79,29.60,9,1,17,0.14
2013-7-20,72,67,65,63,61,59,86,79,67,29.71,29.68,4,0,11,0.15
2013-7-24,93,78,68,59,56,52,69,48,29,29.78,29.57,14,4,21,0.00
2013-7-25,89,76,66,61,59,57,80,57,37,29.84,29.69,7,2,12,0.00
2013-7-26,92,78,64,63,60,56,91,60,32,29.88,29.72,8,2,11,0.17
2013-7-27,87,77,63,61,58,55,87,54,36,29.93,29.67,7,2,10,0.00
2013-7-28,90,76,68,63,60,53,79,59,29,29.69,29.52,8,1,14,0.02
2013-7-29,93,78,65,62,55,45,86,50,20,29.76,29.64,7,1,14,0.02
2013-7-30,98,83,66,55,50,45,64,35,17,29.86,29.70,3,1,8,0.00
2013-7-31,100,84,70,57,51,43,62,34,15,29.84,29.64,6,1,11,0.00
2013-8-1,92,78,69,63,57,53,80,50,32,29.80,29.65,7,2,13,0.01
2013-8-2,97,77,66,63,60,53,85,60,24,29.76,29.60,6,1,18,0.12
2013-8-3,72,67,63,61,60,59,88,80,66,29.78,29.70,4,0,5,0.00
2013-8-5,93,82,75,59,56,54,53,42,30,29.69,29.60,12,1,15,0.00
2013-8-6,92,78,68,58,54,49,62,46,25,29.70,29.59,6,1,15,0.00
2013-8-7,86,74,65,58,55,52,75,53,34,29.72,29.63,8,1,16,0.00
2013-8-8,89,76,66,57,52,43,70,47,20,29.73,29.62,9,2,12,0.00
2013-8-9,94,76,62,52,48,40,64,39,17,29.82,29.69,6,1,11,0.00
2013-8-10,88,74,64,56,52,45,69,49,30,29.94,29.76,9,2,14,0.02
2013-8-11,87,72,61,58,54,47,85,57,25,29.98,29.77,6,1,8,0.03
2013-8-12,88,74,66,61,57,53,74,56,32,29.89,29.72,7,2,12,0.00
2013-8-13,91,78,64,58,53,45,74,45,23,29.86,29.70,3,1,9,0.00
2013-8-14,93,78,64,60,54,43,77,46,19,29.82,29.66,6,1,17,0.00
2013-8-15,96,78,64,58,51,33,74,43,12,29.83,29.67,4,1,9,0.00
2013-8-16,99,82,66,53,47,35,59,33,11,29.81,29.64,5,1,10,0.00
2013-8-17,99,84,72,55,48,38,52,30,12,29.76,29.56,6,1,13,0.00
2013-8-18,98,83,69,54,50,44,58,34,18,29.75,29.58,7,1,11,0.00
2013-8-19,98,81,69,59,52,48,70,39,18,29.73,29.55,11,2,20,0.00
2013-8-20,95,77,63,63,57,51,83,53,23,29.76,29.59,6,1,20,0.05
2013-8-21,95,80,65,59,54,48,78,45,24,29.76,29.61,7,1,18,0.00
2013-8-22,96,82,68,54,49,40,59,33,20,29.78,29.59,4,1,8,0.00
2013-8-23,90,77,64,52,47,40,48,36,25,29.76,29.60,10,2,15,0.00
2013-8-24,88,76,67,63,56,50,81,51,29,29.79,29.66,7,1,17,0.07
2013-8-25,90,75,67,64,60,56,80,62,33,29.87,29.77,8,1,13,0.05
2013-8-26,92,78,65,62,57,49,83,51,29,29.91,29.73,9,2,13,0.00
2013-8-27,92,79,64,55,52,47,68,42,26,29.81,29.63,8,1,9,0.00
2013-8-28,92,78,65,58,53,50,65,44,26,29.80,29.67,7,2,12,0.00
2013-8-29,90,78,70,60,56,53,62,48,30,29.85,29.75,11,2,12,0.00
2013-8-30,96,81,67,62,56,46,78,46,22,29.83,29.63,5,1,7,0.00
2013-8-31,98,83,65,58,52,44,71,38,19,29.71,29.50,7,1,9,0.00
2013-9-1,98,80,69,63,53,48,73,41,19,29.75,29.54,12,2,23,0.04
2013-9-2,73,72,70,61,57,55,68,61,54,29.78,29.74,5,1,8,0.01
2013-9-5,84,79,73,43,38,37,30,24,19,29.81,29.74,6,2,7,0.00
2013-9-6,92,78,62,47,42,36,50,28,16,29.88,29.66,7,1,8,0.00
2013-9-7,94,78,63,62,51,46,62,41,23,29.79,29.61,7,1,19,0.06
2013-9-8,92,78,63,55,51,48,65,42,23,29.74,29.51,5,1,12,0.00
2013-9-9,90,77,64,59,53,46,73,46,25,29.63,29.46,10,1,13,0.02
2013-9-10,74,67,63,63,59,54,93,75,53,29.80,29.61,9,1,12,0.77
2013-9-11,85,72,63,64,59,47,94,69,33,29.86,29.73,14,2,18,0.00
2013-9-12,75,67,62,64,60,57,92,79,62,29.83,29.72,7,1,16,0.36
2013-9-13,78,66,63,62,60,56,94,80,49,29.83,29.70,6,1,10,0.19
2013-9-14,78,66,58,61,58,55,94,77,50,29.80,29.67,5,1,16,1.31
2013-9-15,82,68,57,61,56,50,97,70,33,29.87,29.76,7,1,13,0.20
2013-9-16,83,70,58,58,55,51,87,63,37,29.94,29.78,5,1,10,0.00
2013-9-17,85,72,59,59,56,51,88,62,33,29.85,29.63,6,1,10,0.00
2013-9-18,86,73,65,61,58,52,81,61,35,29.70,29.54,6,1,11,0.00
2013-9-19,88,73,62,61,55,47,91,58,26,29.69,29.57,6,1,8,0.16
2013-9-20,84,72,62,55,52,46,68,51,34,29.79,29.66,11,3,24,0.00
2013-9-21,83,70,57,57,54,51,89,60,34,29.81,29.61,5,1,12,0.00
2013-9-22,82,68,60,57,53,41,90,61,31,29.66,29.33,16,3,22,0.37
2013-9-23,74,62,49,42,36,31,68,40,21,29.89,29.54,7,2,16,0.00
2013-9-24,80,64,49,47,42,39,76,48,25,30.00,29.77,5,1,7,0.00
2013-9-25,87,68,50,48,44,37,82,45,22,29.77,29.45,10,2,18,0.00
2013-9-26,85,71,54,46,41,34,69,37,18,29.58,29.42,9,2,18,0.00
2013-9-27,73,62,49,51,42,32,56,48,41,29.85,29.50,11,2,15,0.00
2013-9-28,73,56,42,36,28,16,68,39,12,30.10,29.86,4,0,10,0.00
2013-9-29,80,61,41,37,30,22,70,37,12,30.11,29.85,4,0,8,0.00
2013-9-30,88,66,47,37,34,28,61,34,13,29.89,29.66,3,0,6,0.00
2013-10-1,88,68,50,40,32,18,62,31,8,29.82,29.67,6,0,6,0.00
2013-10-2,84,66,47,38,33,22,62,33,11,29.83,29.64,5,1,8,0.00
2013-10-3,81,66,50,40,34,27,63,34,14,29.73,29.49,10,1,13,0.00
2013-10-4,66,58,49,34,22,7,45,27,13,29.98,29.59,14,3,17,0.00
2013-10-5,63,52,39,24,19,14,51,30,15,30.18,29.99,7,2,13,0.00
2013-10-6,74,56,42,31,24,19,52,31,13,30.26,30.07,4,0,6,0.00
2013-10-7,79,60,40,32,26,21,62,32,12,30.16,29.91,8,1,9,0.00
2013-10-8,81,63,46,35,31,28,59,33,15,29.91,29.61,6,1,15,0.00
2013-10-9,78,63,47,39,34,26,65,37,16,29.75,29.58,10,2,15,0.00
2013-10-10,72,58,45,46,37,28,75,48,27,29.82,29.48,22,3,26,0.10
2013-10-11,65,51,37,35,32,30,80,51,29,29.98,29.82,5,1,11,0.00
2013-10-12,74,56,39,39,35,32,77,49,23,30.08,29.91,8,1,15,0.00
2013-10-13,80,63,48,45,40,36,68,45,21,29.99,29.70,12,2,21,0.00
2013-10-14,71,60,49,45,31,19,67,36,15,29.87,29.73,13,2,15,0.00
2013-10-15,67,53,40,33,29,24,60,40,27,29.96,29.77,20,4,29,0.00
2013-10-16,64,52,45,36,29,15,65,43,20,30.02,29.88,11,2,21,0.00
2013-10-17,68,51,36,29,22,17,59,35,16,30.08,29.84,4,0,10,0.00
2013-10-18,65,52,37,29,20,12,62,32,14,30.07,29.86,10,2,16,0.00
2013-10-19,69,50,34,30,24,19,79,44,15,30.16,29.95,5,1,7,0.00
2013-10-20,74,54,38,28,21,11,63,32,10,29.99,29.74,6,1,13,0.00
2013-10-21,66,55,44,33,30,18,62,39,22,30.05,29.86,14,1,18,0.00
2013-10-22,73,54,36,32,27,17,70,40,13,30.20,30.03,4,0,7,0.00
2013-10-23,74,56,38,35,27,22,59,36,18,30.13,29.94,4,0,8,0.00
2013-10-24,77,60,43,49,34,27,84,42,18,30.08,29.90,8,1,20,0.05
2013-10-25,68,55,48,50,45,40,89,71,42,30.09,29.92,7,1,15,0.11
2013-10-26,70,56,41,45,40,35,89,60,32,30.20,30.06,4,0,6,0.01
2013-10-27,71,56,41,42,38,33,85,54,25,30.10,29.76,4,1,7,0.00
2013-10-28,72,58,45,43,33,20,76,44,18,29.82,29.68,7,1,15,0.00
2013-10-29,70,60,51,29,26,22,39,27,18,29.84,29.61,10,3,22,0.00
2013-10-30,62,52,41,37,32,25,68,49,35,29.87,29.63,6,1,15,0.00
2013-10-31,57,46,35,33,27,23,75,50,28,30.06,29.88,9,2,19,0.00
2013-11-1,62,50,39,29,26,22,64,43,22,30.18,30.02,12,2,15,0.00
2013-11-2,66,50,34,30,26,22,76,43,20,30.28,29.96,6,1,9,0.00
2013-11-3,70,56,46,36,30,23,60,38,23,29.96,29.60,5,1,11,0.00
2013-11-4,68,56,41,43,37,33,73,50,30,29.81,29.61,13,2,21,0.00
2013-11-5,54,46,35,45,33,16,90,62,42,30.21,29.66,11,2,13,0.21
2013-11-6,56,37,28,22,-3,-100,67,29,19,30.42,30.22,5,-168,9,0.00
2013-11-7,63,41,33,29,5,-100,74,34,21,30.46,30.21,4,-156,7,0.00
2013-11-8,64,43,33,31,9,-100,78,37,23,30.22,29.97,5,-135,6,0.00
2013-11-9,71,46,37,31,7,-100,69,32,16,30.14,30.01,4,-156,5,0.00
2013-11-10,70,46,36,31,8,-100,68,33,17,30.22,30.07,4,-147,7,0.00
2013-11-11,71,47,40,31,7,-100,62,30,16,30.26,30.09,5,-156,8,0.00
2013-11-12,60,40,41,36,7,-100,73,43,36,30.46,30.25,16,-186,19,0.00
2013-11-13,56,38,36,39,8,-100,89,51,50,30.45,30.08,5,-210,11,0.00
2013-11-14,64,40,40,41,6,-100,86,45,34,30.08,29.85,3,-220,5,0.00
2013-11-15,62,39,34,45,6,-100,89,49,37,29.85,29.58,7,-220,22,0.14
2013-11-16,64,41,44,44,4,-100,91,41,33,29.74,29.51,5,-238,15,0.00
2013-11-17,58,27,44,34,-28,-100,63,27,38,29.99,29.74,4,-457,9,0.00
2013-11-18,58,56,54,32,32,31,43,40,38,30.10,30.07,2,2,4,0.00
2013-11-19,64,44,53,37,2,-100,53,34,34,30.01,29.77,3,-249,3,0.00
2013-11-20,50,48,46,44,39,34,93,74,56,29.86,29.85,2,1,7,0.02
2013-11-23,-200,0,200,-100,-100,-100,0,0,100,30.41,30.40,0,-999,0,0.00
2013-11-24,-200,0,200,-100,-100,-100,0,0,100,30.39,29.88,0,-999,0,0.00
2013-11-25,46,13,35,42,-57,-100,87,23,58,30.33,29.83,4,-676,6,0.00
2013-11-26,51,40,29,41,30,24,94,69,44,30.47,30.33,5,0,7,0.00
2013-11-27,47,38,28,32,27,23,89,66,47,30.40,30.21,3,1,7,0.00
2013-11-28,53,41,27,42,28,23,92,64,34,30.29,30.18,3,0,5,0.00
2013-11-29,58,43,28,44,30,24,92,64,35,30.37,30.22,4,0,7,0.00
2013-11-30,58,45,31,53,32,27,92,63,37,30.32,30.14,5,0,8,0.00
2013-12-1,51,40,35,37,31,27,93,69,48,30.27,30.16,6,2,12,0.00
2013-12-2,55,42,33,42,28,25,92,60,38,30.21,29.85,10,1,13,0.00
2013-12-3,67,48,32,34,22,12,90,42,12,29.85,29.53,10,1,13,0.00
2013-12-4,61,48,38,35,24,16,73,42,21,29.76,29.44,14,3,21,0.00
2013-12-5,40,29,15,35,24,10,93,83,52,30.09,29.73,9,1,13,0.00
2013-12-6,43,26,13,41,17,10,94,71,39,30.34,30.09,4,1,8,0.07
2013-12-7,38,27,18,31,21,11,90,78,66,30.26,29.93,4,1,8,0.00
2013-12-8,36,31,26,24,17,11,83,57,44,30.08,29.88,10,2,13,0.02
2013-12-9,31,26,18,17,9,1,71,50,29,30.62,30.08,15,3,18,0.00
2013-12-10,36,26,14,33,8,1,92,51,25,30.65,30.43,4,0,8,0.00
2013-12-11,51,30,17,43,14,8,88,53,26,30.65,30.46,3,1,6,0.00
2013-12-12,46,32,23,42,17,11,92,55,38,30.61,30.21,6,1,8,0.00
2013-12-13,50,38,31,32,26,19,86,63,49,30.21,30.00,8,1,11,0.00
2013-12-14,48,37,27,23,19,17,70,50,30,30.45,30.16,5,1,14,0.00
2013-12-15,49,37,26,33,20,17,75,51,30,30.48,30.33,10,1,14,0.00
2013-12-16,58,41,27,26,22,19,74,50,26,30.46,30.30,4,1,9,0.00
2013-12-17,59,42,27,38,23,20,75,50,24,30.45,30.29,2,0,8,0.00
2013-12-18,55,40,27,28,24,21,83,55,30,30.29,29.93,3,0,4,0.00
2013-12-19,59,44,30,27,24,18,77,48,27,29.92,29.66,5,1,7,0.00
2013-12-20,55,41,29,32,25,18,76,54,26,29.77,29.58,5,1,11,0.00
2013-12-21,42,38,35,34,28,24,92,69,50,29.86,29.53,11,2,16,0.12
2013-12-22,46,37,28,41,22,16,92,58,31,30.32,29.86,6,1,14,0.00
2013-12-23,50,38,22,45,21,16,91,54,31,30.52,30.32,6,1,6,0.00
2013-12-24,51,39,25,38,22,19,93,55,31,30.44,30.18,7,1,13,0.00
2013-12-25,48,39,28,36,21,14,92,52,29,30.45,30.31,5,1,12,0.00
2013-12-26,52,38,21,36,19,13,91,50,25,30.46,30.28,4,0,6,0.00
2013-12-27,55,41,28,43,19,14,93,45,22,30.42,30.22,4,1,7,0.00
2013-12-28,50,38,22,45,20,14,93,51,26,30.22,29.93,4,1,7,0.00
2013-12-29,48,41,32,39,24,19,87,50,37,30.19,29.97,7,1,14,0.00
2013-12-30,53,39,24,35,16,8,91,44,19,30.38,30.18,6,1,11,0.00
2013-12-31,53,36,22,19,16,13,71,46,24,30.41,30.19,5,1,6,0.00
2014-1-1,56,40,25,22,18,14,73,45,20,30.32,30.11,12,2,20,0.00
2014-1-2,53,36,23,24,16,11,80,49,19,30.42,30.26,3,0,7,0.00